sensor_id;sensor_type;location;lat;lon;timestamp;temperature;humidity
14771;DHT22;7477;45.222;5.688;2023-02-01T00:00:11;3.60;99.90
14771;DHT22;7477;45.222;5.688;2023-02-01T00:03:31;3.60;99.90
14771;DHT22;7477;45.222;5.688;2023-02-01T00:06:50;3.60;99.90
14771;DHT22;7477;45.222;5.688;2023-02-01T00:10:10;3.50;99.90
14771;DHT22;7477;45.222;5.688;2023-02-01T00:13:31;3.40;99.90
14771;DHT22;7477;45.222;5.688;2023-02-01T00:16:51;3.40;99.90
14771;DHT22;7477;45.222;5.688;2023-02-01T00:20:11;3.30;99.90
14771;DHT22;7477;45.222;5.688;2023-02-01T00:23:35;3.30;99.90
14771;DHT22;7477;45.222;5.688;2023-02-01T00:26:55;3.20;99.90
14771;DHT22;7477;45.222;5.688;2023-02-01T00:30:15;3.20;99.90
14771;DHT22;7477;45.222;5.688;2023-02-01T00:33:34;3.10;99.90
14771;DHT22;7477;45.222;5.688;2023-02-01T00:36:53;3.10;99.90
14771;DHT22;7477;45.222;5.688;2023-02-01T00:40:13;3.00;99.90
14771;DHT22;7477;45.222;5.688;2023-02-01T00:43:33;2.90;99.90
14771;DHT22;7477;45.222;5.688;2023-02-01T00:46:52;3.10;99.90
14771;DHT22;7477;45.222;5.688;2023-02-01T00:50:11;3.10;99.90
14771;DHT22;7477;45.222;5.688;2023-02-01T00:53:31;3.20;99.90
14771;DHT22;7477;45.222;5.688;2023-02-01T00:56:51;3.10;99.90
14771;DHT22;7477;45.222;5.688;2023-02-01T01:00:10;3.10;99.90
14771;DHT22;7477;45.222;5.688;2023-02-01T01:03:30;3.00;99.90
14771;DHT22;7477;45.222;5.688;2023-02-01T01:06:52;3.10;99.90
14771;DHT22;7477;45.222;5.688;2023-02-01T01:10:11;3.10;99.90
14771;DHT22;7477;45.222;5.688;2023-02-01T01:13:30;3.10;99.90
14771;DHT22;7477;45.222;5.688;2023-02-01T01:16:49;3.10;99.90
14771;DHT22;7477;45.222;5.688;2023-02-01T01:20:10;3.00;99.90
14771;DHT22;7477;45.222;5.688;2023-02-01T01:23:29;3.10;99.90
14771;DHT22;7477;45.222;5.688;2023-02-01T01:26:49;3.00;99.90
14771;DHT22;7477;45.222;5.688;2023-02-01T01:30:08;3.00;99.90
14771;DHT22;7477;45.222;5.688;2023-02-01T01:33:28;3.00;99.90
14771;DHT22;7477;45.222;5.688;2023-02-01T01:36:47;3.00;99.90
14771;DHT22;7477;45.222;5.688;2023-02-01T01:40:08;2.90;99.90
14771;DHT22;7477;45.222;5.688;2023-02-01T01:43:47;3.00;99.90
14771;DHT22;7477;45.222;5.688;2023-02-01T01:47:07;3.00;99.90
14771;DHT22;7477;45.222;5.688;2023-02-01T01:50:30;3.00;99.90
14771;DHT22;7477;45.222;5.688;2023-02-01T01:53:59;3.10;99.90
14771;DHT22;7477;45.222;5.688;2023-02-01T01:57:31;3.10;99.90
14771;DHT22;7477;45.222;5.688;2023-02-01T02:00:53;3.10;99.90
14771;DHT22;7477;45.222;5.688;2023-02-01T02:04:12;3.00;99.90
14771;DHT22;7477;45.222;5.688;2023-02-01T02:07:35;3.10;99.90
14771;DHT22;7477;45.222;5.688;2023-02-01T02:10:55;3.20;99.90
14771;DHT22;7477;45.222;5.688;2023-02-01T02:14:21;3.20;99.90
14771;DHT22;7477;45.222;5.688;2023-02-01T02:17:58;3.20;99.90
14771;DHT22;7477;45.222;5.688;2023-02-01T02:36:01;3.20;99.90
14771;DHT22;7477;45.222;5.688;2023-02-01T02:46:41;3.10;99.90
14771;DHT22;7477;45.222;5.688;2023-02-01T02:50:38;3.10;99.90
14771;DHT22;7477;45.222;5.688;2023-02-01T02:54:23;3.00;99.90
14771;DHT22;7477;45.222;5.688;2023-02-01T02:58:04;3.00;99.90
14771;DHT22;7477;45.222;5.688;2023-02-01T03:01:43;3.00;99.90
14771;DHT22;7477;45.222;5.688;2023-02-01T03:05:21;3.00;99.90
14771;DHT22;7477;45.222;5.688;2023-02-01T03:08:41;3.00;99.90
14771;DHT22;7477;45.222;5.688;2023-02-01T03:12:09;3.00;99.90
14771;DHT22;7477;45.222;5.688;2023-02-01T03:16:07;2.90;99.90
14771;DHT22;7477;45.222;5.688;2023-02-01T03:19:39;2.90;99.90
14771;DHT22;7477;45.222;5.688;2023-02-01T03:23:07;2.90;99.90
14771;DHT22;7477;45.222;5.688;2023-02-01T03:26:30;2.90;99.90
14771;DHT22;7477;45.222;5.688;2023-02-01T03:33:22;2.90;99.90
14771;DHT22;7477;45.222;5.688;2023-02-01T03:36:59;2.90;99.90
14771;DHT22;7477;45.222;5.688;2023-02-01T03:40:21;2.80;99.90
14771;DHT22;7477;45.222;5.688;2023-02-01T03:43:58;2.80;99.90
14771;DHT22;7477;45.222;5.688;2023-02-01T03:47:25;2.80;99.90
14771;DHT22;7477;45.222;5.688;2023-02-01T03:50:52;2.80;99.90
14771;DHT22;7477;45.222;5.688;2023-02-01T03:54:15;2.90;99.90
14771;DHT22;7477;45.222;5.688;2023-02-01T03:57:58;2.80;99.90
14771;DHT22;7477;45.222;5.688;2023-02-01T04:01:20;2.90;99.90
14771;DHT22;7477;45.222;5.688;2023-02-01T04:04:39;2.80;99.90
14771;DHT22;7477;45.222;5.688;2023-02-01T04:07:58;2.80;99.90
14771;DHT22;7477;45.222;5.688;2023-02-01T04:11:18;2.80;99.90
14771;DHT22;7477;45.222;5.688;2023-02-01T04:14:37;2.90;99.90
14771;DHT22;7477;45.222;5.688;2023-02-01T04:17:57;2.90;99.90
14771;DHT22;7477;45.222;5.688;2023-02-01T04:21:17;2.80;99.90
14771;DHT22;7477;45.222;5.688;2023-02-01T04:24:36;2.80;99.90
14771;DHT22;7477;45.222;5.688;2023-02-01T04:27:55;2.80;99.90
14771;DHT22;7477;45.222;5.688;2023-02-01T04:31:15;2.90;99.90
14771;DHT22;7477;45.222;5.688;2023-02-01T04:34:34;2.90;99.90
14771;DHT22;7477;45.222;5.688;2023-02-01T04:37:54;2.90;99.90
14771;DHT22;7477;45.222;5.688;2023-02-01T04:41:13;2.90;99.90
14771;DHT22;7477;45.222;5.688;2023-02-01T04:44:33;2.80;99.90
14771;DHT22;7477;45.222;5.688;2023-02-01T04:47:52;2.80;99.90
14771;DHT22;7477;45.222;5.688;2023-02-01T04:51:11;2.80;99.90
14771;DHT22;7477;45.222;5.688;2023-02-01T04:54:30;2.80;99.90
14771;DHT22;7477;45.222;5.688;2023-02-01T04:57:49;2.80;99.90
14771;DHT22;7477;45.222;5.688;2023-02-01T05:01:08;2.70;99.90
14771;DHT22;7477;45.222;5.688;2023-02-01T05:04:27;2.80;99.90
14771;DHT22;7477;45.222;5.688;2023-02-01T05:07:47;2.70;99.90
14771;DHT22;7477;45.222;5.688;2023-02-01T05:11:06;2.70;99.90
14771;DHT22;7477;45.222;5.688;2023-02-01T05:14:25;2.70;99.90
14771;DHT22;7477;45.222;5.688;2023-02-01T05:17:44;2.70;99.90
14771;DHT22;7477;45.222;5.688;2023-02-01T05:21:03;2.60;99.90
14771;DHT22;7477;45.222;5.688;2023-02-01T05:24:23;2.60;99.90
14771;DHT22;7477;45.222;5.688;2023-02-01T05:27:43;2.60;99.90
14771;DHT22;7477;45.222;5.688;2023-02-01T05:31:09;2.60;99.90
14771;DHT22;7477;45.222;5.688;2023-02-01T05:34:29;2.60;99.90
14771;DHT22;7477;45.222;5.688;2023-02-01T05:37:49;2.60;99.90
14771;DHT22;7477;45.222;5.688;2023-02-01T05:41:08;2.60;99.90
14771;DHT22;7477;45.222;5.688;2023-02-01T05:44:27;2.60;99.90
14771;DHT22;7477;45.222;5.688;2023-02-01T05:47:46;2.60;99.90
14771;DHT22;7477;45.222;5.688;2023-02-01T05:51:05;2.60;99.90
14771;DHT22;7477;45.222;5.688;2023-02-01T05:54:24;2.60;99.90
14771;DHT22;7477;45.222;5.688;2023-02-01T05:57:43;2.60;99.90
14771;DHT22;7477;45.222;5.688;2023-02-01T06:01:03;2.60;99.90
14771;DHT22;7477;45.222;5.688;2023-02-01T06:04:22;2.60;99.90
14771;DHT22;7477;45.222;5.688;2023-02-01T06:07:42;2.60;99.90
14771;DHT22;7477;45.222;5.688;2023-02-01T06:11:03;2.60;99.90
14771;DHT22;7477;45.222;5.688;2023-02-01T06:14:22;2.60;99.90
14771;DHT22;7477;45.222;5.688;2023-02-01T06:17:46;2.60;99.90
14771;DHT22;7477;45.222;5.688;2023-02-01T06:21:06;2.60;99.90
14771;DHT22;7477;45.222;5.688;2023-02-01T06:24:25;2.60;99.90
14771;DHT22;7477;45.222;5.688;2023-02-01T06:27:44;2.60;99.90
14771;DHT22;7477;45.222;5.688;2023-02-01T06:31:05;2.60;99.90
14771;DHT22;7477;45.222;5.688;2023-02-01T06:34:27;2.60;99.90
14771;DHT22;7477;45.222;5.688;2023-02-01T06:37:46;2.60;99.90
14771;DHT22;7477;45.222;5.688;2023-02-01T06:41:06;2.60;99.90
14771;DHT22;7477;45.222;5.688;2023-02-01T06:44:26;2.60;99.90
14771;DHT22;7477;45.222;5.688;2023-02-01T06:47:45;2.60;99.90
14771;DHT22;7477;45.222;5.688;2023-02-01T06:51:05;2.60;99.90
14771;DHT22;7477;45.222;5.688;2023-02-01T06:54:24;2.60;99.90
14771;DHT22;7477;45.222;5.688;2023-02-01T06:57:43;2.50;99.90
14771;DHT22;7477;45.222;5.688;2023-02-01T07:01:07;2.50;99.90
14771;DHT22;7477;45.222;5.688;2023-02-01T07:04:27;2.50;99.90
14771;DHT22;7477;45.222;5.688;2023-02-01T07:07:45;2.50;99.90
14771;DHT22;7477;45.222;5.688;2023-02-01T07:11:07;2.50;99.90
14771;DHT22;7477;45.222;5.688;2023-02-01T07:14:27;2.50;99.90
14771;DHT22;7477;45.222;5.688;2023-02-01T07:17:46;2.50;99.90
14771;DHT22;7477;45.222;5.688;2023-02-01T07:21:07;2.50;99.90
14771;DHT22;7477;45.222;5.688;2023-02-01T07:24:26;2.40;99.90
14771;DHT22;7477;45.222;5.688;2023-02-01T07:27:45;2.40;99.90
14771;DHT22;7477;45.222;5.688;2023-02-01T07:31:08;2.40;99.90
14771;DHT22;7477;45.222;5.688;2023-02-01T07:34:28;2.40;99.90
14771;DHT22;7477;45.222;5.688;2023-02-01T07:37:49;2.40;99.90
14771;DHT22;7477;45.222;5.688;2023-02-01T07:41:08;2.40;99.90
14771;DHT22;7477;45.222;5.688;2023-02-01T07:44:28;2.40;99.90
14771;DHT22;7477;45.222;5.688;2023-02-01T07:47:48;2.50;99.90
14771;DHT22;7477;45.222;5.688;2023-02-01T07:51:10;2.50;99.90
14771;DHT22;7477;45.222;5.688;2023-02-01T07:54:30;2.60;99.90
14771;DHT22;7477;45.222;5.688;2023-02-01T07:57:49;2.60;99.90
14771;DHT22;7477;45.222;5.688;2023-02-01T08:01:17;2.50;99.90
14771;DHT22;7477;45.222;5.688;2023-02-01T08:04:42;2.60;99.90
14771;DHT22;7477;45.222;5.688;2023-02-01T08:08:01;2.70;99.90
14771;DHT22;7477;45.222;5.688;2023-02-01T08:11:21;2.70;99.90
14771;DHT22;7477;45.222;5.688;2023-02-01T08:14:41;2.60;99.90
14771;DHT22;7477;45.222;5.688;2023-02-01T08:18:00;2.60;99.90
14771;DHT22;7477;45.222;5.688;2023-02-01T08:21:27;2.70;99.90
14771;DHT22;7477;45.222;5.688;2023-02-01T08:24:55;3.50;99.90
14771;DHT22;7477;45.222;5.688;2023-02-01T08:28:20;4.80;99.90
14771;DHT22;7477;45.222;5.688;2023-02-01T08:31:39;6.20;99.90
14771;DHT22;7477;45.222;5.688;2023-02-01T08:35:03;4.20;99.90
14771;DHT22;7477;45.222;5.688;2023-02-01T08:38:23;3.20;99.90
14771;DHT22;7477;45.222;5.688;2023-02-01T08:41:43;3.00;99.90
14771;DHT22;7477;45.222;5.688;2023-02-01T08:45:25;3.00;99.90
14771;DHT22;7477;45.222;5.688;2023-02-01T08:48:46;3.00;99.90
14771;DHT22;7477;45.222;5.688;2023-02-01T08:52:06;3.00;99.90
14771;DHT22;7477;45.222;5.688;2023-02-01T08:55:25;2.90;99.90
14771;DHT22;7477;45.222;5.688;2023-02-01T08:58:45;2.80;99.90
14771;DHT22;7477;45.222;5.688;2023-02-01T09:02:05;2.90;99.90
14771;DHT22;7477;45.222;5.688;2023-02-01T09:05:24;3.00;99.90
14771;DHT22;7477;45.222;5.688;2023-02-01T09:08:45;3.10;99.90
14771;DHT22;7477;45.222;5.688;2023-02-01T09:12:05;3.10;99.90
14771;DHT22;7477;45.222;5.688;2023-02-01T09:15:25;3.10;99.90
14771;DHT22;7477;45.222;5.688;2023-02-01T09:18:44;3.20;99.90
14771;DHT22;7477;45.222;5.688;2023-02-01T09:22:04;3.20;99.90
14771;DHT22;7477;45.222;5.688;2023-02-01T09:25:23;3.20;99.90
14771;DHT22;7477;45.222;5.688;2023-02-01T09:28:42;3.30;99.90
14771;DHT22;7477;45.222;5.688;2023-02-01T09:32:02;3.30;99.90
14771;DHT22;7477;45.222;5.688;2023-02-01T09:35:21;3.40;99.90
14771;DHT22;7477;45.222;5.688;2023-02-01T09:38:40;3.50;99.90
14771;DHT22;7477;45.222;5.688;2023-02-01T09:48:55;3.70;99.90
14771;DHT22;7477;45.222;5.688;2023-02-01T09:52:17;3.70;99.90
14771;DHT22;7477;45.222;5.688;2023-02-01T09:55:47;3.60;99.90
14771;DHT22;7477;45.222;5.688;2023-02-01T09:59:32;3.60;99.90
14771;DHT22;7477;45.222;5.688;2023-02-01T10:02:54;3.60;99.90
14771;DHT22;7477;45.222;5.688;2023-02-01T10:10:19;3.70;99.90
14771;DHT22;7477;45.222;5.688;2023-02-01T10:14:10;3.70;99.90
14771;DHT22;7477;45.222;5.688;2023-02-01T10:27:41;3.90;99.90
14771;DHT22;7477;45.222;5.688;2023-02-01T10:31:02;4.00;99.90
14771;DHT22;7477;45.222;5.688;2023-02-01T10:34:31;4.10;99.90
14771;DHT22;7477;45.222;5.688;2023-02-01T10:37:52;4.20;99.90
14771;DHT22;7477;45.222;5.688;2023-02-01T10:41:18;4.20;99.90
14771;DHT22;7477;45.222;5.688;2023-02-01T10:44:43;4.30;99.90
14771;DHT22;7477;45.222;5.688;2023-02-01T10:48:03;4.50;99.90
14771;DHT22;7477;45.222;5.688;2023-02-01T10:51:47;4.50;99.90
14771;DHT22;7477;45.222;5.688;2023-02-01T10:58:46;4.70;99.90
14771;DHT22;7477;45.222;5.688;2023-02-01T11:02:32;4.80;99.90
14771;DHT22;7477;45.222;5.688;2023-02-01T11:05:55;4.80;99.90
14771;DHT22;7477;45.222;5.688;2023-02-01T11:09:24;4.80;99.90
14771;DHT22;7477;45.222;5.688;2023-02-01T11:12:53;4.90;99.90
14771;DHT22;7477;45.222;5.688;2023-02-01T11:16:14;4.90;99.90
14771;DHT22;7477;45.222;5.688;2023-02-01T11:19:34;4.90;99.90
14771;DHT22;7477;45.222;5.688;2023-02-01T11:22:55;4.90;99.90
14771;DHT22;7477;45.222;5.688;2023-02-01T11:26:22;5.00;99.90
14771;DHT22;7477;45.222;5.688;2023-02-01T11:29:44;5.10;99.90
14771;DHT22;7477;45.222;5.688;2023-02-01T11:33:05;5.20;99.90
14771;DHT22;7477;45.222;5.688;2023-02-01T11:36:28;5.20;99.90
14771;DHT22;7477;45.222;5.688;2023-02-01T11:39:57;5.40;99.90
14771;DHT22;7477;45.222;5.688;2023-02-01T11:43:25;5.50;99.90
14771;DHT22;7477;45.222;5.688;2023-02-01T11:46:46;5.60;99.90
14771;DHT22;7477;45.222;5.688;2023-02-01T11:50:18;5.70;99.90
14771;DHT22;7477;45.222;5.688;2023-02-01T11:54:02;5.80;99.90
14771;DHT22;7477;45.222;5.688;2023-02-01T12:01:12;5.80;99.90
14771;DHT22;7477;45.222;5.688;2023-02-01T12:08:24;6.00;99.90
14771;DHT22;7477;45.222;5.688;2023-02-01T12:47:49;7.20;99.90
14771;DHT22;7477;45.222;5.688;2023-02-01T12:51:20;7.30;99.90
14771;DHT22;7477;45.222;5.688;2023-02-01T12:55:01;7.40;99.90
14771;DHT22;7477;45.222;5.688;2023-02-01T12:58:31;7.50;99.90
14771;DHT22;7477;45.222;5.688;2023-02-01T13:05:23;7.60;99.90
14771;DHT22;7477;45.222;5.688;2023-02-01T13:15:51;7.80;99.90
14771;DHT22;7477;45.222;5.688;2023-02-01T13:19:22;7.70;99.90
14771;DHT22;7477;45.222;5.688;2023-02-01T13:22:51;7.80;99.90
14771;DHT22;7477;45.222;5.688;2023-02-01T13:26:12;7.70;99.90
14771;DHT22;7477;45.222;5.688;2023-02-01T13:29:33;7.90;99.90
14771;DHT22;7477;45.222;5.688;2023-02-01T13:36:59;8.00;99.90
14771;DHT22;7477;45.222;5.688;2023-02-01T13:40:44;8.00;99.90
14771;DHT22;7477;45.222;5.688;2023-02-01T13:44:17;8.00;99.90
14771;DHT22;7477;45.222;5.688;2023-02-01T13:47:40;8.10;99.90
14771;DHT22;7477;45.222;5.688;2023-02-01T13:51:02;8.20;99.90
14771;DHT22;7477;45.222;5.688;2023-02-01T13:54:37;8.30;99.90
14771;DHT22;7477;45.222;5.688;2023-02-01T14:01:37;8.40;99.90
14771;DHT22;7477;45.222;5.688;2023-02-01T14:04:56;8.50;99.90
14771;DHT22;7477;45.222;5.688;2023-02-01T14:08:45;8.50;99.90
14771;DHT22;7477;45.222;5.688;2023-02-01T14:12:42;8.50;99.90
14771;DHT22;7477;45.222;5.688;2023-02-01T14:19:25;8.40;99.90
14771;DHT22;7477;45.222;5.688;2023-02-01T14:22:45;8.40;99.90
14771;DHT22;7477;45.222;5.688;2023-02-01T14:26:06;8.20;99.90
14771;DHT22;7477;45.222;5.688;2023-02-01T14:29:40;8.20;99.90
14771;DHT22;7477;45.222;5.688;2023-02-01T14:33:14;8.30;99.90
14771;DHT22;7477;45.222;5.688;2023-02-01T14:36:49;8.30;99.90
14771;DHT22;7477;45.222;5.688;2023-02-01T14:44:36;8.30;99.90
14771;DHT22;7477;45.222;5.688;2023-02-01T14:47:31;8.30;99.90
14771;DHT22;7477;45.222;5.688;2023-02-01T14:50:50;8.30;99.90
14771;DHT22;7477;45.222;5.688;2023-02-01T14:54:13;8.30;99.90
14771;DHT22;7477;45.222;5.688;2023-02-01T14:57:36;8.20;99.90
14771;DHT22;7477;45.222;5.688;2023-02-01T15:04:20;8.40;99.90
14771;DHT22;7477;45.222;5.688;2023-02-01T15:07:41;8.40;99.90
14771;DHT22;7477;45.222;5.688;2023-02-01T15:11:02;8.50;99.90
14771;DHT22;7477;45.222;5.688;2023-02-01T15:14:24;8.60;99.90
14771;DHT22;7477;45.222;5.688;2023-02-01T15:17:57;8.50;99.90
14771;DHT22;7477;45.222;5.688;2023-02-01T15:21:21;8.50;99.90
14771;DHT22;7477;45.222;5.688;2023-02-01T15:24:41;8.40;99.90
14771;DHT22;7477;45.222;5.688;2023-02-01T15:28:00;8.30;99.90
14771;DHT22;7477;45.222;5.688;2023-02-01T15:31:32;8.20;99.90
14771;DHT22;7477;45.222;5.688;2023-02-01T15:34:52;8.10;99.90
14771;DHT22;7477;45.222;5.688;2023-02-01T15:41:43;8.00;99.90
14771;DHT22;7477;45.222;5.688;2023-02-01T15:45:03;8.00;99.90
14771;DHT22;7477;45.222;5.688;2023-02-01T15:48:25;8.00;99.90
14771;DHT22;7477;45.222;5.688;2023-02-01T15:51:47;8.00;99.90
14771;DHT22;7477;45.222;5.688;2023-02-01T15:58:50;7.90;99.90
14771;DHT22;7477;45.222;5.688;2023-02-01T16:02:57;7.90;99.90
14771;DHT22;7477;45.222;5.688;2023-02-01T16:09:56;8.00;99.90
14771;DHT22;7477;45.222;5.688;2023-02-01T16:13:17;8.00;99.90
14771;DHT22;7477;45.222;5.688;2023-02-01T16:16:36;7.90;99.90
14771;DHT22;7477;45.222;5.688;2023-02-01T16:19:56;8.00;99.90
14771;DHT22;7477;45.222;5.688;2023-02-01T16:23:16;8.00;99.90
14771;DHT22;7477;45.222;5.688;2023-02-01T16:26:35;8.00;99.90
14771;DHT22;7477;45.222;5.688;2023-02-01T16:29:56;7.90;99.90
14771;DHT22;7477;45.222;5.688;2023-02-01T16:33:18;7.90;99.90
14771;DHT22;7477;45.222;5.688;2023-02-01T16:36:40;7.90;99.90
14771;DHT22;7477;45.222;5.688;2023-02-01T16:40:00;7.90;99.90
14771;DHT22;7477;45.222;5.688;2023-02-01T16:43:23;7.90;99.90
14771;DHT22;7477;45.222;5.688;2023-02-01T16:46:44;7.90;99.90
14771;DHT22;7477;45.222;5.688;2023-02-01T16:50:15;7.90;99.90
14771;DHT22;7477;45.222;5.688;2023-02-01T16:53:36;7.90;99.90
14771;DHT22;7477;45.222;5.688;2023-02-01T16:56:55;7.90;99.90
14771;DHT22;7477;45.222;5.688;2023-02-01T17:00:15;7.90;99.90
14771;DHT22;7477;45.222;5.688;2023-02-01T17:03:34;7.80;99.90
14771;DHT22;7477;45.222;5.688;2023-02-01T17:06:53;7.80;99.90
14771;DHT22;7477;45.222;5.688;2023-02-01T17:10:26;7.90;99.90
14771;DHT22;7477;45.222;5.688;2023-02-01T17:13:45;7.80;99.90
14771;DHT22;7477;45.222;5.688;2023-02-01T17:17:05;7.80;99.90
14771;DHT22;7477;45.222;5.688;2023-02-01T17:20:29;7.80;99.90
14771;DHT22;7477;45.222;5.688;2023-02-01T17:23:51;7.70;99.90
14771;DHT22;7477;45.222;5.688;2023-02-01T17:27:11;7.70;99.90
14771;DHT22;7477;45.222;5.688;2023-02-01T17:30:31;7.70;99.90
14771;DHT22;7477;45.222;5.688;2023-02-01T17:33:50;7.70;99.90
14771;DHT22;7477;45.222;5.688;2023-02-01T17:37:25;7.70;99.90
14771;DHT22;7477;45.222;5.688;2023-02-01T17:40:44;7.70;99.90
14771;DHT22;7477;45.222;5.688;2023-02-01T17:44:04;7.70;99.90
14771;DHT22;7477;45.222;5.688;2023-02-01T17:47:23;7.60;99.90
14771;DHT22;7477;45.222;5.688;2023-02-01T17:50:42;7.70;99.90
14771;DHT22;7477;45.222;5.688;2023-02-01T17:54:02;7.60;99.90
14771;DHT22;7477;45.222;5.688;2023-02-01T17:57:22;7.60;99.90
14771;DHT22;7477;45.222;5.688;2023-02-01T18:00:42;7.60;99.90
14771;DHT22;7477;45.222;5.688;2023-02-01T18:04:01;7.60;99.90
14771;DHT22;7477;45.222;5.688;2023-02-01T18:07:20;7.60;99.90
14771;DHT22;7477;45.222;5.688;2023-02-01T18:10:39;7.60;99.90
14771;DHT22;7477;45.222;5.688;2023-02-01T18:13:58;7.60;99.90
14771;DHT22;7477;45.222;5.688;2023-02-01T18:17:17;7.60;99.90
14771;DHT22;7477;45.222;5.688;2023-02-01T18:20:40;7.50;99.90
14771;DHT22;7477;45.222;5.688;2023-02-01T18:24:01;7.50;99.90
14771;DHT22;7477;45.222;5.688;2023-02-01T18:27:21;7.50;99.90
14771;DHT22;7477;45.222;5.688;2023-02-01T18:30:41;7.50;99.90
14771;DHT22;7477;45.222;5.688;2023-02-01T18:34:00;7.40;99.90
14771;DHT22;7477;45.222;5.688;2023-02-01T18:37:20;7.40;99.90
14771;DHT22;7477;45.222;5.688;2023-02-01T18:44:02;7.40;99.90
14771;DHT22;7477;45.222;5.688;2023-02-01T18:47:22;7.40;99.90
14771;DHT22;7477;45.222;5.688;2023-02-01T18:50:43;7.40;99.90
14771;DHT22;7477;45.222;5.688;2023-02-01T18:54:03;7.40;99.90
14771;DHT22;7477;45.222;5.688;2023-02-01T18:57:22;7.30;99.90
14771;DHT22;7477;45.222;5.688;2023-02-01T19:00:42;7.30;99.90
14771;DHT22;7477;45.222;5.688;2023-02-01T19:04:02;7.20;99.90
14771;DHT22;7477;45.222;5.688;2023-02-01T19:07:23;7.20;99.90
14771;DHT22;7477;45.222;5.688;2023-02-01T19:10:42;7.20;99.90
14771;DHT22;7477;45.222;5.688;2023-02-01T19:14:01;7.20;99.90
14771;DHT22;7477;45.222;5.688;2023-02-01T19:17:21;7.20;99.90
14771;DHT22;7477;45.222;5.688;2023-02-01T19:20:41;7.10;99.90
14771;DHT22;7477;45.222;5.688;2023-02-01T19:24:04;7.10;99.90
14771;DHT22;7477;45.222;5.688;2023-02-01T19:27:23;7.00;99.90
14771;DHT22;7477;45.222;5.688;2023-02-01T19:30:42;7.00;99.90
14771;DHT22;7477;45.222;5.688;2023-02-01T19:34:02;7.00;99.90
14771;DHT22;7477;45.222;5.688;2023-02-01T19:37:22;6.10;99.90
14771;DHT22;7477;45.222;5.688;2023-02-01T19:40:41;6.90;99.90
14771;DHT22;7477;45.222;5.688;2023-02-01T19:44:01;6.90;99.90
14771;DHT22;7477;45.222;5.688;2023-02-01T19:47:22;6.80;99.90
14771;DHT22;7477;45.222;5.688;2023-02-01T19:50:41;6.80;99.90
14771;DHT22;7477;45.222;5.688;2023-02-01T19:54:01;6.80;99.90
14771;DHT22;7477;45.222;5.688;2023-02-01T19:57:20;6.80;99.90
14771;DHT22;7477;45.222;5.688;2023-02-01T20:00:40;6.80;99.90
14771;DHT22;7477;45.222;5.688;2023-02-01T20:04:00;6.70;99.90
14771;DHT22;7477;45.222;5.688;2023-02-01T20:07:22;6.80;99.90
14771;DHT22;7477;45.222;5.688;2023-02-01T20:10:43;6.70;99.90
14771;DHT22;7477;45.222;5.688;2023-02-01T20:14:02;6.70;99.90
14771;DHT22;7477;45.222;5.688;2023-02-01T20:17:22;6.80;99.90
14771;DHT22;7477;45.222;5.688;2023-02-01T20:20:41;6.80;99.90
14771;DHT22;7477;45.222;5.688;2023-02-01T20:24:01;6.80;99.90
14771;DHT22;7477;45.222;5.688;2023-02-01T20:27:21;6.80;99.90
14771;DHT22;7477;45.222;5.688;2023-02-01T20:30:45;6.80;99.90
14771;DHT22;7477;45.222;5.688;2023-02-01T20:34:05;6.70;99.90
14771;DHT22;7477;45.222;5.688;2023-02-01T20:37:24;6.70;99.90
14771;DHT22;7477;45.222;5.688;2023-02-01T20:40:43;6.70;99.90
14771;DHT22;7477;45.222;5.688;2023-02-01T20:44:02;6.70;99.90
14771;DHT22;7477;45.222;5.688;2023-02-01T20:47:22;6.70;99.90
14771;DHT22;7477;45.222;5.688;2023-02-01T20:50:41;6.70;99.90
14771;DHT22;7477;45.222;5.688;2023-02-01T20:54:00;6.70;99.90
14771;DHT22;7477;45.222;5.688;2023-02-01T20:57:20;6.70;99.90
14771;DHT22;7477;45.222;5.688;2023-02-01T21:00:39;6.70;99.90
14771;DHT22;7477;45.222;5.688;2023-02-01T21:03:59;6.70;99.90
14771;DHT22;7477;45.222;5.688;2023-02-01T21:07:19;6.70;99.90
14771;DHT22;7477;45.222;5.688;2023-02-01T21:10:39;6.70;99.90
14771;DHT22;7477;45.222;5.688;2023-02-01T21:13:58;6.70;99.90
14771;DHT22;7477;45.222;5.688;2023-02-01T21:17:18;6.70;99.90
14771;DHT22;7477;45.222;5.688;2023-02-01T21:20:37;6.70;99.90
14771;DHT22;7477;45.222;5.688;2023-02-01T21:23:58;6.70;99.90
14771;DHT22;7477;45.222;5.688;2023-02-01T21:27:18;6.70;99.90
14771;DHT22;7477;45.222;5.688;2023-02-01T21:30:37;6.60;99.90
14771;DHT22;7477;45.222;5.688;2023-02-01T21:33:56;6.70;99.90
14771;DHT22;7477;45.222;5.688;2023-02-01T21:37:15;6.70;99.90
14771;DHT22;7477;45.222;5.688;2023-02-01T21:40:35;6.60;99.90
14771;DHT22;7477;45.222;5.688;2023-02-01T21:43:55;6.70;99.90
14771;DHT22;7477;45.222;5.688;2023-02-01T21:47:17;6.60;99.90
14771;DHT22;7477;45.222;5.688;2023-02-01T21:50:36;6.70;99.90
14771;DHT22;7477;45.222;5.688;2023-02-01T21:53:56;6.70;99.90
14771;DHT22;7477;45.222;5.688;2023-02-01T21:57:15;6.60;99.90
14771;DHT22;7477;45.222;5.688;2023-02-01T22:00:34;6.60;99.90
14771;DHT22;7477;45.222;5.688;2023-02-01T22:03:53;6.60;99.90
14771;DHT22;7477;45.222;5.688;2023-02-01T22:07:13;6.60;99.90
14771;DHT22;7477;45.222;5.688;2023-02-01T22:10:33;6.60;99.90
14771;DHT22;7477;45.222;5.688;2023-02-01T22:13:52;6.60;99.90
14771;DHT22;7477;45.222;5.688;2023-02-01T22:17:12;6.60;99.90
14771;DHT22;7477;45.222;5.688;2023-02-01T22:20:31;6.60;99.90
14771;DHT22;7477;45.222;5.688;2023-02-01T22:23:52;6.60;99.90
14771;DHT22;7477;45.222;5.688;2023-02-01T22:27:12;6.60;99.90
14771;DHT22;7477;45.222;5.688;2023-02-01T22:30:32;6.60;99.90
14771;DHT22;7477;45.222;5.688;2023-02-01T22:33:51;6.60;99.90
14771;DHT22;7477;45.222;5.688;2023-02-01T22:37:10;6.60;99.90
14771;DHT22;7477;45.222;5.688;2023-02-01T22:40:29;6.60;99.90
14771;DHT22;7477;45.222;5.688;2023-02-01T22:43:49;6.60;99.90
14771;DHT22;7477;45.222;5.688;2023-02-01T22:47:08;6.60;99.90
14771;DHT22;7477;45.222;5.688;2023-02-01T22:50:28;6.60;99.90
14771;DHT22;7477;45.222;5.688;2023-02-01T22:53:47;6.50;99.90
14771;DHT22;7477;45.222;5.688;2023-02-01T22:57:17;6.50;99.90
14771;DHT22;7477;45.222;5.688;2023-02-01T23:00:36;6.50;99.90
14771;DHT22;7477;45.222;5.688;2023-02-01T23:03:57;6.50;99.90
14771;DHT22;7477;45.222;5.688;2023-02-01T23:07:16;6.40;99.90
14771;DHT22;7477;45.222;5.688;2023-02-01T23:10:36;6.40;99.90
14771;DHT22;7477;45.222;5.688;2023-02-01T23:13:55;6.40;99.90
14771;DHT22;7477;45.222;5.688;2023-02-01T23:17:15;6.30;99.90
14771;DHT22;7477;45.222;5.688;2023-02-01T23:20:34;6.30;99.90
14771;DHT22;7477;45.222;5.688;2023-02-01T23:23:55;6.30;99.90
14771;DHT22;7477;45.222;5.688;2023-02-01T23:27:15;6.30;99.90
14771;DHT22;7477;45.222;5.688;2023-02-01T23:30:35;6.40;99.90
14771;DHT22;7477;45.222;5.688;2023-02-01T23:33:54;6.30;99.90
14771;DHT22;7477;45.222;5.688;2023-02-01T23:37:14;6.30;99.90
14771;DHT22;7477;45.222;5.688;2023-02-01T23:40:33;6.30;99.90
14771;DHT22;7477;45.222;5.688;2023-02-01T23:43:52;6.30;99.90
14771;DHT22;7477;45.222;5.688;2023-02-01T23:47:17;6.30;99.90
14771;DHT22;7477;45.222;5.688;2023-02-01T23:50:37;6.20;99.90
14771;DHT22;7477;45.222;5.688;2023-02-01T23:53:56;6.30;99.90
14771;DHT22;7477;45.222;5.688;2023-02-01T23:57:16;6.20;99.90
